METAR Reports for Pennsylvania

 

KRYT - Fountain Dale, Pennsylvania, USA
Distance from station: N 63mi, 102km
Updated: Mon, 13-Nov-2017 7:53am EST
NOT Current
Mist, Overcast
Mist, Overcast
 Wind from calm
Wind: Calm
Temperature: 37°F , 3°C
Dew Point: 34°F , 1°C
Humidity: 87%
Barometer: 30.31 inHg , 1026.4 hPa
Summary: Mist
Clouds: Overcast
Visibility: 5 miles , 8 km
Cloud details: Overcast 700 ft
2017/11/13 12:53 KRYT 131253Z AUTO 00000KT 5SM BR OVC007 03/01 A3031 RMK AO2 SLP275 T00280011 TSNO $
KTHV - York, Pennsylvania, USA
Distance from station: NNE 131mi, 81km
Updated: Wed, 13-Dec-2017 9:11pm EST
Light snow, Mist, Overcast
Light snow, Mist, Overcast
 Wind from SSW
Wind: SSW 8 mph , 13 km/h
Temperature: 25°F , -4°C
Wind Chill: 16°F , -9°C
Dew Point: 21°F , -6°C
Humidity: 86%
Barometer: 29.64 inHg , 1003.7 hPa
Summary: Light snow, Mist
Clouds: Overcast
Visibility: 1 1/2 miles , 2 km
Cloud details: Overcast 2300 ft
2017/12/14 02:11 KTHV 140211Z AUTO 20007KT 1 1/2SM -SN BR OVC023 M04/M06 A2964 RMK AO2 P0000 T10391061
KCXY - Harrisburg, Pennsylvania, USA
Distance from station: NNE 101mi, 163km
Updated: Wed, 13-Dec-2017 8:56pm EST
Light snow, Overcast
Light snow, Overcast
 Wind from SSE
Wind: SSE 3 mph , 6 km/h
Temperature: 27°F , -3°C
Dew Point: 12°F , -11°C
Humidity: 54%
Barometer: 29.64 inHg , 1003.7 hPa
Summary: Light Snow
Clouds: Overcast
Visibility: 5 miles , 8 km
Cloud details: Overcast 3200 ft
2017/12/14 01:56 KCXY 140156Z 16003KT 5SM -SN OVC032 M03/M11 A2964 RMK AO2 SNB47 SLP042 P0000 T10281111
 
KMDT - Middletown, Pennsylvania, USA
Distance from station: NNE 102mi, 164km
Updated: Wed, 13-Dec-2017 8:56pm EST
Light snow, Overcast
Light snow, Overcast
 Wind from SW
Wind: SW 5 mph , 7 km/h
Temperature: 27°F , -3°C
Wind Chill: 21°F , -6°C
Dew Point: 14°F , -10°C
Humidity: 59%
Barometer: 29.64 inHg , 1003.7 hPa
Summary: Light Snow
Clouds: Overcast
Visibility: 5 miles , 8 km
Cloud details: Overcast 3200 ft
2017/12/14 01:56 KMDT 140156Z 23004KT 5SM -SN OVC032 M03/M10 A2964 RMK AO2 SNB52 SLP042 P0000 T10281100
KLNS - Lancaster, Pennsylvania, USA
Distance from station: NNE 108mi, 173km
Updated: Wed, 13-Dec-2017 8:53pm EST
Overcast
Overcast
 Wind from calm
Wind: Calm
Temperature: 27°F , -3°C
Dew Point: 16°F , -9°C
Humidity: 64%
Barometer: 29.66 inHg , 1004.4 hPa
Clouds: Overcast
Visibility: 10 miles , 16 km
Cloud details: Overcast 4400 ft
2017/12/14 01:53 KLNS 140153Z 00000KT 10SM OVC044 M03/M09 A2966 RMK AO2 SLP049 T10331089
KAOO - Altoona, Pennsylvania, USA
Distance from station: NNW 113mi, 182km
Updated: Wed, 13-Dec-2017 9:02pm EST
Light snow, Mist, Overcast
Light snow, Mist, Overcast
 Wind from SW
Wind: SW 9 mph , 15 km/h
Temperature: 25°F , -4°C
Wind Chill: 16°F , -9°C
Dew Point: 19°F , -7°C
Humidity: 80%
Barometer: 29.54 inHg , 1000.3 hPa
Summary: Light snow, Mist
Clouds: Overcast
Visibility: 3/4 mile , 5 km
Cloud details: Overcast 1100 ft
2017/12/14 02:02 KAOO 140202Z AUTO 22008KT 3/4SM -SN BR VV011 M04/M07 A2954 RMK AO2 P0000 T10441067
 
KMQS - Coatesville, Pennsylvania, USA
Distance from station: NE 116mi, 186km
Updated: Wed, 13-Dec-2017 8:55pm EST
Mostly cloudy
Mostly cloudy
 Wind from calm
Wind: Calm
Temperature: 25°F , -4°C
Dew Point: 7°F , -14°C
Humidity: 46%
Barometer: 29.66 inHg , 1004.4 hPa
Clouds: Mostly cloudy
Visibility: 10 miles , 16 km
Cloud details: Few Clouds 1900 ft
Mostly cloudy 2700 ft
2017/12/14 01:55 KMQS 140155Z AUTO 00000KT 10SM FEW019 BKN027 M04/M14 A2966 RMK AO2
KMUI - Muir Aaf/Indiant, Pennsylvania, USA
Distance from station: NNE 119mi, 192km
Updated: Wed, 13-Dec-2017 8:56pm EST
Clear
Clear
 Wind from calm
Wind: Calm
Temperature: 25°F , -4°C
Dew Point: 9°F , -13°C
Humidity: 50%
Barometer: 29.64 inHg , 1003.7 hPa
Clouds: Clear
Visibility: 10 miles , 16 km
2017/12/14 01:56 KMUI 140156Z AUTO 00000KT 10SM CLR M04/M13 A2964 RMK AO2 UPB54 SLP047 P0000 T10421133
KJST - Johnstown, Pennsylvania, USA
Distance from station: NW 128mi, 206km
Updated: Wed, 13-Dec-2017 8:54pm EST
Snow, Freezing, Fog, Overcast
Snow, Freezing, Fog, Overcast
 Wind from SW
Wind: SW 7 mph , 11 km/h
Temperature: 19°F , -7°C
Wind Chill: 10°F , -12°C
Dew Point: 18°F , -8°C
Humidity: 93%
Barometer: 29.46 inHg , 997.6 hPa
Summary: Snow, Freezing, Fog
Clouds: Overcast
Visibility: 1/2 mile , 2 km
Cloud details: Overcast 600 ft
2017/12/14 01:54 KJST 140154Z AUTO 23006KT 1/2SM SN FZFG VV006 M07/M08 A2946 RMK AO2 SNB08 SLP013 P0002 T10671083
 
KRDG - Reading, Pennsylvania, USA
Distance from station: NE 132mi, 212km
Updated: Wed, 13-Dec-2017 8:54pm EST
Overcast
Overcast
 Wind from calm
Wind: Calm
Temperature: 27°F , -3°C
Dew Point: 10°F , -12°C
Humidity: 50%
Barometer: 29.66 inHg , 1004.4 hPa
Clouds: Overcast
Visibility: 10 miles , 16 km
Cloud details: Mostly cloudy 4500 ft
Overcast 7500 ft
2017/12/14 01:54 KRDG 140154Z 00000KT 10SM BKN045 OVC075 M03/M12 A2966 RMK AO2 SLP052 T10331117
KPHL - Philadelphia, Pennsylvania, USA
Distance from station: ENE 137mi, 221km
Updated: Wed, 13-Dec-2017 8:54pm EST
Overcast
Overcast
 Wind from SW
Wind: SW 7 mph , 11 km/h
Temperature: 30°F , -1°C
Wind Chill: 23°F , -5°C
Dew Point: 9°F , -13°C
Humidity: 40%
Barometer: 29.70 inHg , 1005.8 hPa
Clouds: Overcast
Visibility: 10 miles , 16 km
Cloud details: Mostly cloudy 6000 ft
Mostly cloudy 9000 ft
Overcast 15000 ft
2017/12/14 01:54 KPHL 140154Z 22006KT 10SM BKN060 BKN090 OVC150 M01/M13 A2970 RMK AO2 SLP058 T10111133
KPTW - Pottstown, Pennsylvania, USA
Distance from station: NE 140mi, 225km
Updated: Wed, 13-Dec-2017 8:54pm EST
Overcast
Overcast
 Wind from calm
Wind: Calm
Temperature: 25°F , -4°C
Dew Point: 7°F , -14°C
Humidity: 46%
Barometer: 29.68 inHg , 1005.1 hPa
Clouds: Overcast
Visibility: 10 miles , 16 km
Cloud details: Few Clouds 8000 ft
Overcast 10000 ft
2017/12/14 01:54 KPTW 140154Z AUTO 00000KT 10SM FEW080 OVC100 M04/M14 A2968 RMK AO2 SLP052 T10391139
 
KSEG - Selinsgrove, Pennsylvania, USA
Distance from station: N 141mi, 227km
Updated: Wed, 13-Dec-2017 8:53pm EST
Overcast
Overcast
 Wind from ESE
Wind: ESE 3 mph , 6 km/h
Temperature: 25°F , -4°C
Dew Point: 9°F , -13°C
Humidity: 50%
Barometer: 29.65 inHg , 1004.1 hPa
Clouds: Overcast
Visibility: 10 miles , 16 km
Cloud details: Mostly cloudy 3800 ft
Overcast 5500 ft
2017/12/14 01:53 KSEG 140153Z AUTO 11003KT 10SM BKN038 OVC055 M04/M13 A2965 RMK AO2 SLP046 T10441128
KUNV - State College, Pennsylvania, USA
Distance from station: N 142mi, 229km
Updated: Wed, 13-Dec-2017 9:10pm EST
Snow, Overcast
Snow, Overcast
 Wind from calm
Wind: Calm
Temperature: 19°F , -7°C
Dew Point: 14°F , -10°C
Humidity: 79%
Barometer: 29.56 inHg , 1001 hPa
Summary: Snow
Clouds: Overcast
Visibility: 1 mile , 2 km
Cloud details: Mostly cloudy 800 ft
Overcast 1600 ft
2017/12/14 02:10 KUNV 140210Z 00000KT 1SM SN BKN008 OVC016 M07/M10 A2956 RMK RY 24 CONDITION CODE 3-3-3 AT 0207Z
KLBE - Latrobe/Westmorl, Pennsylvania, USA
Distance from station: NW 145mi, 234km
Updated: Wed, 13-Dec-2017 8:48pm EST
Snow, Overcast
Snow, Overcast
 Wind from calm
Wind: Calm
Temperature: 25°F , -4°C
Dew Point: 19°F , -7°C
Humidity: 80%
Barometer: 29.54 inHg , 1000.3 hPa
Summary: Snow
Clouds: Overcast
Visibility: 1 mile , 2 km
Cloud details: Overcast 400 ft
2017/12/14 01:48 KLBE 140148Z 00000KT 1SM SN OVC004 M04/M07 A2954
 
KLOM - Philly Wings F, Pennsylvania, USA
Distance from station: NE 146mi, 236km
Updated: Wed, 13-Dec-2017 8:55pm EST
Overcast
Overcast
 Wind from calm
Wind: Calm
Temperature: 27°F , -3°C
Dew Point: 9°F , -13°C
Humidity: 46%
Barometer: 29.69 inHg , 1005.4 hPa
Clouds: Overcast
Visibility: 10 miles , 16 km
Cloud details: Partly cloudy 7500 ft
Overcast 10000 ft
2017/12/14 01:55 KLOM 140155Z AUTO 00000KT 10SM SCT075 OVC100 M03/M13 A2969 RMK AO1
KIDI - Indiana/Stewart, Pennsylvania, USA
Distance from station: NW 152mi, 245km
Updated: Wed, 13-Dec-2017 8:55pm EST
Freezing fog, Overcast
Freezing fog, Overcast
 Wind from SSE
Wind: SSE 3 mph , 6 km/h
Temperature: 21°F , -6°C
Dew Point: 21°F , -6°C
Humidity: 100%
Barometer: 29.54 inHg , 1000.3 hPa
Summary: Freezing Fog
Clouds: Overcast
Visibility: 1/2 mile , 2 km
Cloud details: Overcast 200 ft
2017/12/14 01:55 KIDI 140155Z AUTO 15003KT 1/2SM FZFG OVC002 M06/M06 A2954 RMK A01
KGKJ - Meadville, Pennsylvania, USA
Distance from station: NW 152mi, 245km
Updated: Wed, 13-Dec-2017 8:53pm EST
Light snow, Mist, Overcast
Light snow, Mist, Overcast
 Wind from varies
Wind: varies 3 mph , 6 km/h
Temperature: 19°F , -7°C
Dew Point: 18°F , -8°C
Humidity: 93%
Barometer: 29.46 inHg , 997.6 hPa
Summary: Light snow, Mist
Clouds: Overcast
Visibility: 1 1/4 miles , 2 km
Cloud details: Overcast 1500 ft
2017/12/14 01:53 KGKJ 140153Z AUTO VRB03KT 1 1/4SM -SN BR OVC015 M07/M08 A2946 RMK AO2 SLP996 P0003 T10721083
 
KPNE - Philadelphia/Ne, Pennsylvania, USA
Distance from station: NE 155mi, 250km
Updated: Wed, 13-Dec-2017 8:54pm EST
Overcast
Overcast
 Wind from W
Wind: W 5 mph , 7 km/h
Temperature: 28°F , -2°C
Wind Chill: 22°F , -6°C
Dew Point: 7°F , -14°C
Humidity: 40%
Barometer: 29.70 inHg , 1005.8 hPa
Clouds: Overcast
Visibility: 10 miles , 16 km
Cloud details: Overcast 9500 ft
2017/12/14 01:54 KPNE 140154Z 27004KT 10SM OVC095 M02/M14 A2970 RMK AO2 SLP059 T10171139
KUKT - Quakertown Arp, Pennsylvania, USA
Distance from station: NE 156mi, 250km
Updated: Wed, 13-Dec-2017 8:55pm EST
Overcast
Overcast
 Wind from calm
Wind: Calm
Temperature: 25°F , -4°C
Dew Point: 9°F , -13°C
Humidity: 50%
Barometer: 29.66 inHg , 1004.4 hPa
Clouds: Overcast
Visibility: 10 miles , 16 km
Cloud details: Overcast 9000 ft
2017/12/14 01:55 KUKT 140155Z AUTO 00000KT 10SM OVC090 M04/M13 A2966 RMK AO1
KXLL - Allentown Queen, Pennsylvania, USA
Distance from station: NE 159mi, 255km
Updated: Wed, 13-Dec-2017 8:55pm EST
Partly cloudy
Partly cloudy
 Wind from calm
Wind: Calm
Temperature: 27°F , -3°C
Dew Point: 10°F , -12°C
Humidity: 50%
Barometer: 29.68 inHg , 1005.1 hPa
Clouds: Partly cloudy
Visibility: 10 miles , 16 km
Cloud details: Partly cloudy 10000 ft
2017/12/14 01:55 KXLL 140155Z AUTO 00000KT 10SM SCT100 M03/M12 A2968 RMK AO2
 
KDYL - Doylestown, Pennsylvania, USA
Distance from station: NE 161mi, 259km
Updated: Wed, 13-Dec-2017 8:54pm EST
Overcast
Overcast
 Wind from calm
Wind: Calm
Temperature: 25°F , -4°C
Dew Point: 7°F , -14°C
Humidity: 46%
Barometer: 29.67 inHg , 1004.7 hPa
Clouds: Overcast
Visibility: 10 miles , 16 km
Cloud details: Overcast 9500 ft
2017/12/14 01:54 KDYL 140154Z AUTO 00000KT 10SM OVC095 M04/M14 A2967 RMK AO2 SLP056 T10441144
KFIG - Clearfield, Pennsylvania, USA
Distance from station: NNW 163mi, 262km
Updated: Wed, 13-Dec-2017 9:11pm EST
Light snow, Mist, Overcast
Light snow, Mist, Overcast
 Wind from E
Wind: E 3 mph , 6 km/h
Temperature: 18°F , -8°C
Dew Point: 16°F , -9°C
Humidity: 93%
Barometer: 29.52 inHg , 999.7 hPa
Summary: Light snow, Mist
Clouds: Overcast
Visibility: 3/4 mile , 5 km
Cloud details: Overcast 800 ft
2017/12/14 02:11 KFIG 140211Z AUTO 09003KT 3/4SM -SN BR VV008 M08/M09 A2952 RMK AO2 P0001 T10781089
KABE - Allentown, Pennsylvania, USA
Distance from station: NE 164mi, 264km
Updated: Wed, 13-Dec-2017 8:51pm EST
Mostly cloudy
Mostly cloudy
 Wind from calm
Wind: Calm
Temperature: 25°F , -4°C
Dew Point: 9°F , -13°C
Humidity: 50%
Barometer: 29.65 inHg , 1004.1 hPa
Clouds: Mostly cloudy
Visibility: 10 miles , 16 km
Cloud details: Mostly cloudy 9000 ft
Mostly cloudy 10000 ft
2017/12/14 01:51 KABE 140151Z 00000KT 10SM BKN090 BKN100 M04/M13 A2965 RMK AO2 SLP047 T10391133
 
KIPT - Williamsport, Pennsylvania, USA
Distance from station: N 170mi, 274km
Updated: Wed, 13-Dec-2017 8:54pm EST
Overcast
Overcast
 Wind from calm
Wind: Calm
Temperature: 25°F , -4°C
Dew Point: 10°F , -12°C
Humidity: 54%
Barometer: 29.62 inHg , 1003 hPa
Clouds: Overcast
Visibility: 10 miles , 16 km
Cloud details: Mostly cloudy 6000 ft
Overcast 11000 ft
2017/12/14 01:54 KIPT 140154Z 00000KT 10SM BKN060 OVC110 M04/M12 A2962 RMK AO2 SLP037 T10391122
KAGC - Pittsburg/West Mifflin, Pennsylvania, USA
Distance from station: NW 170mi, 273km
Updated: Wed, 13-Dec-2017 9:05pm EST
Light snow, Mist, Overcast
Light snow, Mist, Overcast
 Wind from SE
Wind: SE 6 mph , 9 km/h
Temperature: 19°F , -7°C
Wind Chill: 11°F , -12°C
Dew Point: 18°F , -8°C
Humidity: 93%
Barometer: 29.48 inHg , 998.3 hPa
Summary: Light snow, Mist
Clouds: Overcast
Visibility: 1 1/2 miles , 2 km
Cloud details: Mostly cloudy 2000 ft
Overcast 5500 ft
2017/12/14 02:05 KAGC 140205Z 14005KT 1 1/2SM R28/4500VP6000FT -SN BR BKN020 OVC055 M07/M08 A2948 RMK AO2 P0000 T10671078
KAFJ - Washington, Pennsylvania, USA
Distance from station: WNW 176mi, 284km
Updated: Wed, 13-Dec-2017 9:01pm EST
Light snow, Mist, Overcast
Light snow, Mist, Overcast
 Wind from SSE
Wind: SSE 3 mph , 6 km/h
Temperature: 21°F , -6°C
Dew Point: 19°F , -7°C
Humidity: 93%
Barometer: 29.51 inHg , 999.3 hPa
Summary: Light snow, Mist
Clouds: Overcast
Visibility: 3 miles , 5 km
Cloud details: Few Clouds 1800 ft
Partly cloudy 2500 ft
Overcast 3600 ft
2017/12/14 02:01 KAFJ 140201Z AUTO 16003KT 3SM -SN BR FEW018 SCT025 OVC036 M06/M07 A2951 RMK AO2 P0000 FZRANO
 
KDUJ - DuBois/Falls Creek, Pennsylvania, USA
Distance from station: NNW 180mi, 290km
Updated: Wed, 13-Dec-2017 8:53pm EST
Light snow, Mist, Overcast
Light snow, Mist, Overcast
 Wind from SE
Wind: SE 7 mph , 11 km/h
Temperature: 18°F , -8°C
Wind Chill: 9°F , -13°C
Dew Point: 12°F , -11°C
Humidity: 79%
Barometer: 29.48 inHg , 998.3 hPa
Summary: Light snow, Mist
Clouds: Overcast
Visibility: 3/4 mile , 5 km
Cloud details: Overcast 1100 ft
2017/12/14 01:53 KDUJ 140153Z AUTO 13006KT 3/4SM -SN BR VV011 M08/M11 A2948 RMK AO2 SNB06 SLP011 P0001 T10831106
KBTP - Butler, Pennsylvania, USA
Distance from station: NW 190mi, 306km
Updated: Wed, 13-Dec-2017 9:13pm EST
Light snow, Mist, Overcast
Light snow, Mist, Overcast
 Wind from SE
Wind: SE 5 mph , 7 km/h
Temperature: 19°F , -7°C
Wind Chill: 12°F , -11°C
Dew Point: 18°F , -8°C
Humidity: 93%
Barometer: 29.47 inHg , 998 hPa
Summary: Light snow, Mist
Clouds: Overcast
Visibility: 2 1/2 miles , 2 km
Cloud details: Mostly cloudy 1500 ft
Overcast 2200 ft
2017/12/14 02:13 KBTP 140213Z AUTO 14004KT 2 1/2SM -SN BR BKN015 OVC022 M07/M08 A2947 RMK AO2 VIS 1 1/4V4 P0001 FZRANO
KPIT - Pittsburg, Pennsylvania, USA
Distance from station: NW 191mi, 307km
Updated: Wed, 13-Dec-2017 8:58pm EST
Light snow, Mist, Overcast
Light snow, Mist, Overcast
 Wind from SSE
Wind: SSE 7 mph , 11 km/h
Temperature: 23°F , -5°C
Wind Chill: 15°F , -9°C
Dew Point: 19°F , -7°C
Humidity: 86%
Barometer: 29.48 inHg , 998.3 hPa
Summary: Light snow, Mist
Clouds: Overcast
Visibility: 1 mile , 2 km
Cloud details: Mostly cloudy 1400 ft
Mostly cloudy 2200 ft
Overcast 3100 ft
2017/12/14 01:58 KPIT 140158Z 15006KT 1SM R28R/6000VP6000FT -SN BR BKN014 BKN022 OVC031 M05/M07 A2948 RMK AO2 P0000 T10501067 $
 
KMPO - Mount Pokono, Pennsylvania, USA
Distance from station: NNE 193mi, 310km
Updated: Wed, 13-Dec-2017 8:53pm EST
Overcast
Overcast
 Wind from WSW
Wind: WSW 9 mph , 15 km/h
Temperature: 16°F , -9°C
Wind Chill: 5°F , -15°C
Dew Point: 7°F , -14°C
Humidity: 67%
Barometer: 29.53 inHg , 1000 hPa
Clouds: Overcast
Visibility: 10 miles , 16 km
Cloud details: Mostly cloudy 5500 ft
Overcast 7000 ft
2017/12/14 01:53 KMPO 140153Z AUTO 25008KT 10SM BKN055 OVC070 M09/M14 A2953 RMK AO2 SLP035 T10941144
KAVP - Wilkes-Barre, Pennsylvania, USA
Distance from station: NNE 196mi, 315km
Updated: Wed, 13-Dec-2017 8:54pm EST
Mostly cloudy
Mostly cloudy
 Wind from SW
Wind: SW 8 mph , 13 km/h
Temperature: 21°F , -6°C
Wind Chill: 11°F , -12°C
Dew Point: 7°F , -14°C
Humidity: 54%
Barometer: 29.60 inHg , 1002.4 hPa
Clouds: Mostly cloudy
Visibility: 10 miles , 16 km
Cloud details: Partly cloudy 7000 ft
Mostly cloudy 9000 ft
2017/12/14 01:54 KAVP 140154Z 22007KT 10SM SCT070 BKN090 M06/M14 A2960 RMK AO2 SLP035 T10611139
KBVI - Beaverfalls, Pennsylvania, USA
Distance from station: NW 208mi, 334km
Updated: Wed, 13-Dec-2017 8:47pm EST
Light snow, Overcast
Light snow, Overcast
 Wind from SSE
Wind: SSE 6 mph , 9 km/h
Temperature: 21°F , -6°C
Wind Chill: 13°F , -11°C
Dew Point: 18°F , -8°C
Humidity: 86%
Barometer: 29.47 inHg , 998 hPa
Summary: Light Snow
Clouds: Overcast
Visibility: 2 miles , 3 km
Cloud details: Overcast 1400 ft
2017/12/14 01:47 KBVI 140147Z 15005KT 2SM -SN OVC014 M06/M08 A2947 RMK LAST.
 
KBFD - Bradford, Pennsylvania, USA
Distance from station: NNW 216mi, 347km
Updated: Wed, 13-Dec-2017 8:53pm EST
Snow, Freezing, Fog
Snow, Freezing, Fog
 Wind from SSE
Wind: SSE 5 mph , 7 km/h
Temperature: 14°F , -10°C
Wind Chill: 6°F , -14°C
Dew Point: 12°F , -11°C
Humidity: 92%
Barometer: 29.48 inHg , 998.3 hPa
Summary: Snow, Freezing, Fog
Visibility: 1/2 mile , 2 km
2017/12/14 01:53 KBFD 140153Z AUTO 16004KT 1/2SM SN FZFG M10/M11 A2948 RMK AO2 SLP015 P0004 T11001111
KFKL - Franklin, Pennsylvania, USA
Distance from station: NW 218mi, 352km
Updated: Wed, 13-Dec-2017 9:11pm EST
Light snow, Mist, Overcast
Light snow, Mist, Overcast
 Wind from SE
Wind: SE 7 mph , 11 km/h
Temperature: 18°F , -8°C
Wind Chill: 9°F , -13°C
Dew Point: 16°F , -9°C
Humidity: 93%
Barometer: 29.45 inHg , 997.3 hPa
Summary: Light snow, Mist
Clouds: Overcast
Visibility: 1 1/2 miles , 2 km
Cloud details: Overcast 900 ft
2017/12/14 02:11 KFKL 140211Z AUTO 13006KT 1 1/2SM -SN BR OVC009 M08/M09 A2945 RMK AO2 CIG 007V013 P0000 FZRANO TSNO
KUCP - New Castle Muni, Pennsylvania, USA
Distance from station: NW 221mi, 355km
Updated: Wed, 13-Dec-2017 8:56pm EST
Light snow, Mist, Overcast
Light snow, Mist, Overcast
 Wind from SSE
Wind: SSE 5 mph , 7 km/h
Temperature: 21°F , -6°C
Wind Chill: 14°F , -10°C
Dew Point: 19°F , -7°C
Humidity: 93%
Barometer: 29.48 inHg , 998.3 hPa
Summary: Light snow, Mist
Clouds: Overcast
Visibility: 2 1/2 miles , 2 km
Cloud details: Few Clouds 1300 ft
Mostly cloudy 2200 ft
Overcast 2900 ft
2017/12/14 01:56 KUCP 140156Z AUTO 16004KT 2 1/2SM -SN BR FEW013 BKN022 OVC029 M06/M07 A2948 RMK AO2 VIS 1 3/4V4 SLP013 P0000 T10611067
 
KERI - Erie, Pennsylvania, USA
Distance from station: NW 269mi, 432km
Updated: Wed, 13-Dec-2017 8:51pm EST
Light snow, Mist, Overcast
Light snow, Mist, Overcast
 Wind from SSE
Wind: SSE 8 mph , 13 km/h
Temperature: 19°F , -7°C
Wind Chill: 9°F , -13°C
Dew Point: 18°F , -8°C
Humidity: 93%
Barometer: 29.51 inHg , 999.3 hPa
Summary: Light snow, Mist
Clouds: Overcast
Visibility: 1 1/4 miles , 2 km
Cloud details: Overcast 1700 ft
2017/12/14 01:51 KERI 140151Z 15007KT 1 1/4SM -SN BR OVC017 M07/M08 A2951 RMK AO2 SLP004 P0002 T10671083